createdAt,value
2017-05-21T00:00:31.714Z,1022.29
2017-05-21T00:01:31.758Z,1022.29
2017-05-21T00:02:31.789Z,1022.28
2017-05-21T00:03:31.822Z,1022.25
2017-05-21T00:04:31.857Z,1022.28
2017-05-21T00:05:31.892Z,1022.19
2017-05-21T00:06:31.926Z,1022.23
2017-05-21T00:07:31.957Z,1022.21
2017-05-21T00:08:31.990Z,1022.2
2017-05-21T00:09:32.027Z,1022.23
2017-05-21T00:10:32.052Z,1022.23
2017-05-21T00:11:32.089Z,1022.19
2017-05-21T00:12:32.127Z,1022.23
2017-05-21T00:13:32.157Z,1022.23
2017-05-21T00:14:32.192Z,1022.24
2017-05-21T00:15:32.206Z,1022.25
2017-05-21T00:16:32.257Z,1022.24
2017-05-21T00:17:32.290Z,1022.27
2017-05-21T00:18:32.324Z,1022.26
2017-05-21T00:19:32.360Z,1022.24
2017-05-21T00:20:32.395Z,1022.27
2017-05-21T00:21:32.427Z,1022.21
2017-05-21T00:22:32.454Z,1022.22
2017-05-21T00:23:32.488Z,1022.27
2017-05-21T00:24:32.524Z,1022.25
2017-05-21T00:25:32.558Z,1022.25
2017-05-21T00:26:32.591Z,1022.24
2017-05-21T00:27:32.609Z,1022.23
2017-05-21T00:28:32.657Z,1022.2
2017-05-21T00:29:32.687Z,1022.23
2017-05-21T00:30:32.728Z,1022.22
2017-05-21T00:31:32.758Z,1022.28
2017-05-21T00:32:32.790Z,1022.25
2017-05-21T00:33:32.828Z,1022.25
2017-05-21T00:34:32.855Z,1022.27
2017-05-21T00:35:32.889Z,1022.36
2017-05-21T00:36:32.926Z,1022.33
2017-05-21T00:37:32.956Z,1022.33
2017-05-21T00:38:32.990Z,1022.36
2017-05-21T00:39:33.034Z,1022.38
2017-05-21T00:40:33.044Z,1022.41
2017-05-21T00:41:34.460Z,1022.42
2017-05-21T00:42:33.125Z,1022.4
2017-05-21T00:43:33.163Z,1022.34
2017-05-21T00:44:33.200Z,1022.36
2017-05-21T00:45:33.218Z,1022.42
2017-05-21T00:46:33.241Z,1022.38
2017-05-21T00:47:33.292Z,1022.43
2017-05-21T00:48:33.328Z,1022.48
2017-05-21T00:49:33.343Z,1022.47
2017-05-21T00:50:33.388Z,1022.45
2017-05-21T00:51:33.420Z,1022.48
2017-05-21T00:52:33.438Z,1022.48
2017-05-21T00:53:33.490Z,1022.46
2017-05-21T00:54:33.525Z,1022.47
2017-05-21T00:55:33.541Z,1022.49
2017-05-21T00:56:33.592Z,1022.5
2017-05-21T00:57:33.622Z,1022.51
2017-05-21T00:58:33.641Z,1022.49
2017-05-21T00:59:33.687Z,1022.49
2017-05-21T01:00:33.719Z,1022.49
2017-05-21T01:01:33.731Z,1022.5
2017-05-21T01:02:33.783Z,1022.5
2017-05-21T01:03:33.821Z,1022.47
2017-05-21T01:04:33.847Z,1022.49
2017-05-21T01:05:33.884Z,1022.51
2017-05-21T01:06:33.917Z,1022.55
2017-05-21T01:07:33.949Z,1022.53
2017-05-21T01:08:33.984Z,1022.58
2017-05-21T01:09:34.016Z,1022.55
2017-05-21T01:10:34.046Z,1022.57
2017-05-21T01:11:34.085Z,1022.54
2017-05-21T01:12:34.113Z,1022.59
2017-05-21T01:13:34.165Z,1022.61
2017-05-21T01:14:34.181Z,1022.6
2017-05-21T01:15:34.217Z,1022.61
2017-05-21T01:16:34.244Z,1022.71
2017-05-21T01:17:34.285Z,1022.65
2017-05-21T01:18:34.310Z,1022.67
2017-05-21T01:19:34.342Z,1022.67
2017-05-21T01:20:34.384Z,1022.67
2017-05-21T01:21:34.415Z,1022.61
2017-05-21T01:22:34.443Z,1022.69
2017-05-21T01:23:34.479Z,1022.65
2017-05-21T01:24:34.513Z,1022.61
2017-05-21T01:25:34.546Z,1022.63
2017-05-21T01:26:34.558Z,1022.64
2017-05-21T01:27:34.610Z,1022.57
2017-05-21T01:28:34.641Z,1022.58
2017-05-21T01:29:34.672Z,1022.58
2017-05-21T01:30:34.709Z,1022.61
2017-05-21T01:31:34.740Z,1022.59
2017-05-21T01:32:34.773Z,1022.59
2017-05-21T01:33:34.804Z,1022.62
2017-05-21T01:34:34.831Z,1022.62
2017-05-21T01:35:34.870Z,1022.54
2017-05-21T01:36:34.888Z,1022.54
2017-05-21T01:37:34.946Z,1022.59
2017-05-21T01:38:34.971Z,1022.62
2017-05-21T01:39:35.002Z,1022.64
2017-05-21T01:40:35.035Z,1022.59
2017-05-21T01:41:35.066Z,1022.62
2017-05-21T01:42:35.105Z,1022.6
2017-05-21T01:43:35.133Z,1022.61
2017-05-21T01:44:35.164Z,1022.67
2017-05-21T01:45:35.196Z,1022.66
2017-05-21T01:46:35.236Z,1022.63
2017-05-21T01:47:35.263Z,1022.64
2017-05-21T01:48:35.294Z,1022.63
2017-05-21T01:49:35.328Z,1022.63
2017-05-21T01:50:35.364Z,1022.68
2017-05-21T01:51:35.393Z,1022.65
2017-05-21T01:52:35.428Z,1022.65
2017-05-21T01:53:35.459Z,1022.69
2017-05-21T01:54:35.493Z,1022.69
2017-05-21T01:55:35.526Z,1022.71
2017-05-21T01:56:35.557Z,1022.71
2017-05-21T01:57:35.589Z,1022.72
2017-05-21T01:58:35.627Z,1022.66
2017-05-21T01:59:35.655Z,1022.65
2017-05-21T02:00:35.688Z,1022.68
2017-05-21T02:01:35.722Z,1022.61
2017-05-21T02:02:35.758Z,1022.66
2017-05-21T02:03:35.787Z,1022.63
2017-05-21T02:04:35.817Z,1022.7
2017-05-21T02:05:35.850Z,1022.69
2017-05-21T02:06:35.882Z,1022.67
2017-05-21T02:07:35.914Z,1022.7
2017-05-21T02:08:35.946Z,1022.71
2017-05-21T02:09:35.959Z,1022.69
2017-05-21T02:10:36.009Z,1022.73
2017-05-21T02:11:36.046Z,1022.69
2017-05-21T02:12:36.059Z,1022.68
2017-05-21T02:13:36.108Z,1022.75
2017-05-21T02:14:36.135Z,1022.77
2017-05-21T02:15:36.169Z,1022.73
2017-05-21T02:16:36.206Z,1022.72
2017-05-21T02:17:36.237Z,1022.76
2017-05-21T02:18:36.250Z,1022.7
2017-05-21T02:19:36.306Z,1022.69
2017-05-21T02:20:36.338Z,1022.71
2017-05-21T02:21:36.351Z,1022.7
2017-05-21T02:22:36.397Z,1022.71
2017-05-21T02:23:36.432Z,1022.65
2017-05-21T02:24:36.466Z,1022.66
2017-05-21T02:25:36.497Z,1022.62
2017-05-21T02:26:36.510Z,1022.67
2017-05-21T02:27:36.564Z,1022.67
2017-05-21T02:28:36.597Z,1022.63
2017-05-21T02:29:36.630Z,1022.64
2017-05-21T02:30:36.658Z,1022.64
2017-05-21T02:31:36.693Z,1022.66
2017-05-21T02:32:36.724Z,1022.66
2017-05-21T02:33:36.758Z,1022.65
2017-05-21T02:34:36.786Z,1022.64
2017-05-21T02:35:36.822Z,1022.69
2017-05-21T02:36:36.857Z,1022.72
2017-05-21T02:37:36.886Z,1022.7
2017-05-21T02:38:36.894Z,1022.7
2017-05-21T02:39:36.956Z,1022.7
2017-05-21T02:40:36.988Z,1022.71
2017-05-21T02:41:37.019Z,1022.68
2017-05-21T02:42:37.048Z,1022.75
2017-05-21T02:43:37.062Z,1022.72
2017-05-21T02:44:37.114Z,1022.75
2017-05-21T02:45:37.142Z,1022.74
2017-05-21T02:46:37.167Z,1022.75
2017-05-21T02:47:37.209Z,1022.8
2017-05-21T02:48:37.243Z,1022.78
2017-05-21T02:49:37.271Z,1022.8
2017-05-21T02:50:37.303Z,1022.83
2017-05-21T02:51:37.336Z,1022.76
2017-05-21T02:52:37.368Z,1022.78
2017-05-21T02:53:37.405Z,1022.81
2017-05-21T02:54:37.411Z,1022.83
2017-05-21T02:55:37.467Z,1022.8
2017-05-21T02:56:37.500Z,1022.8
2017-05-21T02:57:37.533Z,1022.82
2017-05-21T02:58:37.561Z,1022.8
2017-05-21T02:59:37.596Z,1022.79
2017-05-21T03:00:37.633Z,1022.77
2017-05-21T03:01:37.660Z,1022.79
2017-05-21T03:02:37.671Z,1022.8
2017-05-21T03:03:37.752Z,1022.79
2017-05-21T03:04:37.759Z,1022.8
2017-05-21T03:05:37.786Z,1022.8
2017-05-21T03:06:37.806Z,1022.79
2017-05-21T03:07:37.856Z,1022.77
2017-05-21T03:08:37.886Z,1022.76
2017-05-21T03:09:37.922Z,1022.79
2017-05-21T03:10:37.948Z,1022.78
2017-05-21T03:11:37.980Z,1022.82
2017-05-21T03:12:38.017Z,1022.8
2017-05-21T03:13:38.050Z,1022.86
2017-05-21T03:14:38.063Z,1022.82
2017-05-21T03:15:38.108Z,1022.9
2017-05-21T03:16:38.140Z,1022.84
2017-05-21T03:17:38.167Z,1022.86
2017-05-21T03:18:38.208Z,1022.88
2017-05-21T03:19:38.236Z,1022.84
2017-05-21T03:20:38.248Z,1022.85
2017-05-21T03:21:38.306Z,1022.84
2017-05-21T03:22:38.332Z,1022.87
2017-05-21T03:23:38.368Z,1022.81
2017-05-21T03:24:38.397Z,1022.81
2017-05-21T03:25:38.433Z,1022.83
2017-05-21T03:26:38.463Z,1022.81
2017-05-21T03:27:38.492Z,1022.84
2017-05-21T03:28:38.530Z,1022.83
2017-05-21T03:29:38.561Z,1022.83
2017-05-21T03:30:38.590Z,1022.88
2017-05-21T03:31:38.621Z,1022.86
2017-05-21T03:32:38.659Z,1022.86
2017-05-21T03:33:38.688Z,1022.87
2017-05-21T03:34:38.717Z,1022.91
2017-05-21T03:35:38.753Z,1022.96
2017-05-21T03:36:38.786Z,1022.88
2017-05-21T03:37:38.821Z,1022.88
2017-05-21T03:38:38.837Z,1022.87
2017-05-21T03:39:38.884Z,1022.93
2017-05-21T03:40:38.917Z,1022.87
2017-05-21T03:41:38.949Z,1022.91
2017-05-21T03:42:38.961Z,1022.87
2017-05-21T03:43:39.007Z,1022.91
2017-05-21T03:44:39.042Z,1022.9
2017-05-21T03:45:39.073Z,1022.94
2017-05-21T03:46:39.092Z,1022.94
2017-05-21T03:47:39.146Z,1022.91
2017-05-21T03:48:39.172Z,1022.91
2017-05-21T03:49:39.201Z,1022.93
2017-05-21T03:50:39.235Z,1022.94
2017-05-21T03:51:39.249Z,1022.95
2017-05-21T03:52:39.305Z,1022.9
2017-05-21T03:53:39.339Z,1022.96
2017-05-21T03:54:39.349Z,1022.99
2017-05-21T03:55:39.398Z,1022.99
2017-05-21T03:56:39.431Z,1023.04
2017-05-21T03:57:39.465Z,1023.05
2017-05-21T03:58:39.497Z,1023.06
2017-05-21T03:59:39.529Z,1023.05
2017-05-21T04:00:39.568Z,1023.09
2017-05-21T04:01:39.595Z,1023.05
2017-05-21T04:02:39.613Z,1023.05
2017-05-21T04:03:39.661Z,1023.11
2017-05-21T04:04:39.693Z,1023.07
2017-05-21T04:05:39.729Z,1023.1
2017-05-21T04:06:39.755Z,1023.05
2017-05-21T04:07:39.769Z,1023.08
2017-05-21T04:08:39.820Z,1023.06
2017-05-21T04:09:39.861Z,1023.06
2017-05-21T04:10:39.882Z,1023.09
2017-05-21T04:11:39.919Z,1023.13
2017-05-21T04:12:39.956Z,1023.15
2017-05-21T04:13:39.974Z,1023.14
2017-05-21T04:14:40.012Z,1023.22
2017-05-21T04:15:40.050Z,1023.18
2017-05-21T04:16:40.082Z,1023.23
2017-05-21T04:17:40.217Z,1023.23
2017-05-21T04:18:40.181Z,1023.29
2017-05-21T04:19:40.163Z,1023.24
2017-05-21T04:20:40.213Z,1023.29
2017-05-21T04:21:40.250Z,1023.33
2017-05-21T04:22:40.261Z,1023.36
2017-05-21T04:23:40.310Z,1023.28
2017-05-21T04:24:40.342Z,1023.26
2017-05-21T04:25:40.370Z,1023.25
2017-05-21T04:26:40.414Z,1023.29
2017-05-21T04:27:40.443Z,1023.3
2017-05-21T04:28:40.556Z,1023.31
2017-05-21T04:29:40.505Z,1023.26
2017-05-21T04:30:40.542Z,1023.26
2017-05-21T04:31:40.578Z,1023.29
2017-05-21T04:32:40.610Z,1023.31
2017-05-21T04:33:40.642Z,1023.29
2017-05-21T04:34:40.678Z,1023.34
2017-05-21T04:35:40.703Z,1023.36
2017-05-21T04:36:40.745Z,1023.33
2017-05-21T04:37:40.797Z,1023.37
2017-05-21T04:38:40.814Z,1023.36
2017-05-21T04:39:40.865Z,1023.37
2017-05-21T04:40:40.878Z,1023.4
2017-05-21T04:41:40.913Z,1023.4
2017-05-21T04:42:41.030Z,1023.41
2017-05-21T04:43:40.978Z,1023.45
2017-05-21T04:44:41.018Z,1023.46
2017-05-21T04:45:41.044Z,1023.45
2017-05-21T04:46:41.082Z,1023.44
2017-05-21T04:47:41.122Z,1023.42
2017-05-21T04:48:41.143Z,1023.46
2017-05-21T04:49:41.181Z,1023.43
2017-05-21T04:50:41.214Z,1023.42
2017-05-21T04:51:41.250Z,1023.46
2017-05-21T04:52:41.279Z,1023.48
2017-05-21T04:53:41.324Z,1023.46
2017-05-21T04:54:41.353Z,1023.46
2017-05-21T04:55:41.383Z,1023.53
2017-05-21T04:56:41.417Z,1023.55
2017-05-21T04:57:41.444Z,1023.55
2017-05-21T04:58:41.474Z,1023.55
2017-05-21T04:59:41.515Z,1023.59
2017-05-21T05:00:41.558Z,1023.58
2017-05-21T05:01:41.584Z,1023.59
2017-05-21T05:02:41.632Z,1023.59
2017-05-21T05:03:41.651Z,1023.6
2017-05-21T05:04:41.684Z,1023.66
2017-05-21T05:05:41.718Z,1023.7
2017-05-21T05:06:41.757Z,1023.64
2017-05-21T05:07:41.775Z,1023.71
2017-05-21T05:08:41.931Z,1023.7
2017-05-21T05:09:41.844Z,1023.65
2017-05-21T05:10:41.875Z,1023.67
2017-05-21T05:11:41.930Z,1023.68
2017-05-21T05:12:41.965Z,1023.65
2017-05-21T05:13:41.999Z,1023.72
2017-05-21T05:14:42.028Z,1023.73
2017-05-21T05:15:42.054Z,1023.71
2017-05-21T05:16:42.103Z,1023.73
2017-05-21T05:17:42.135Z,1023.75
2017-05-21T05:18:42.173Z,1023.69
2017-05-21T05:19:42.210Z,1023.7
2017-05-21T05:20:42.241Z,1023.78
2017-05-21T05:21:42.255Z,1023.83
2017-05-21T05:22:42.305Z,1023.75
2017-05-21T05:23:42.350Z,1023.79
2017-05-21T05:24:42.378Z,1023.77
2017-05-21T05:25:42.413Z,1023.81
2017-05-21T05:26:42.437Z,1023.87
2017-05-21T05:27:42.461Z,1023.84
2017-05-21T05:28:42.519Z,1023.85
2017-05-21T05:29:42.763Z,1023.87
2017-05-21T05:30:42.577Z,1023.92
2017-05-21T05:31:42.623Z,1023.94
2017-05-21T05:32:42.664Z,1023.94
2017-05-21T05:33:42.714Z,1024
2017-05-21T05:34:42.735Z,1023.96
2017-05-21T05:35:42.770Z,1023.97
2017-05-21T05:36:42.805Z,1023.86
2017-05-21T05:37:42.842Z,1023.92
2017-05-21T05:38:42.877Z,1023.9
2017-05-21T05:39:42.898Z,1023.9
2017-05-21T05:40:42.948Z,1023.91
2017-05-21T05:41:42.982Z,1023.86
2017-05-21T05:42:43.025Z,1023.86
2017-05-21T05:43:43.064Z,1023.88
2017-05-21T05:44:43.102Z,1023.86
2017-05-21T05:45:43.132Z,1023.93
2017-05-21T05:46:43.172Z,1023.94
2017-05-21T05:47:43.212Z,1023.98
2017-05-21T05:48:43.243Z,1024
2017-05-21T05:49:43.290Z,1023.96
2017-05-21T05:50:43.317Z,1024.02
2017-05-21T05:51:43.358Z,1024.03
2017-05-21T05:52:43.386Z,1024.04
2017-05-21T05:53:43.432Z,1024.09
2017-05-21T05:54:43.470Z,1024.13
2017-05-21T05:55:43.485Z,1024.09
2017-05-21T05:56:43.543Z,1024.09
2017-05-21T05:57:43.578Z,1024.11
2017-05-21T05:58:43.613Z,1024.1
2017-05-21T05:59:43.949Z,1024.13
2017-05-21T06:00:43.688Z,1024.08
2017-05-21T06:01:43.716Z,1024.18
2017-05-21T06:02:43.765Z,1024.16
2017-05-21T06:03:43.798Z,1024.16
2017-05-21T06:04:43.836Z,1024.27
2017-05-21T06:05:43.876Z,1024.27
2017-05-21T06:06:43.907Z,1024.37
2017-05-21T06:07:43.946Z,1024.31
2017-05-21T06:08:43.983Z,1024.35
2017-05-21T06:09:44.023Z,1024.37
2017-05-21T06:10:44.058Z,1024.35
2017-05-21T06:11:44.098Z,1024.38
2017-05-21T06:12:44.134Z,1024.47
2017-05-21T06:13:44.173Z,1024.5
2017-05-21T06:14:44.212Z,1024.48
2017-05-21T06:15:44.248Z,1024.47
2017-05-21T06:16:44.265Z,1024.4
2017-05-21T06:17:44.324Z,1024.46
2017-05-21T06:18:44.363Z,1024.48
2017-05-21T06:19:44.390Z,1024.49
2017-05-21T06:20:44.445Z,1024.42
2017-05-21T06:21:44.466Z,1024.44
2017-05-21T06:22:44.500Z,1024.47
2017-05-21T06:23:44.564Z,1024.5
2017-05-21T06:24:44.605Z,1024.47
2017-05-21T06:25:44.639Z,1024.47
2017-05-21T06:26:44.687Z,1024.52
2017-05-21T06:27:44.721Z,1024.51
2017-05-21T06:28:44.761Z,1024.54
2017-05-21T06:29:44.803Z,1024.55
2017-05-21T06:30:44.848Z,1024.53
2017-05-21T06:31:44.881Z,1024.51
2017-05-21T06:32:45.271Z,1024.52
2017-05-21T06:33:44.976Z,1024.54
2017-05-21T06:34:44.993Z,1024.54
2017-05-21T06:35:45.056Z,1024.53
2017-05-21T06:36:45.082Z,1024.56
2017-05-21T06:37:45.142Z,1024.53
2017-05-21T06:38:45.181Z,1024.54
2017-05-21T06:39:45.224Z,1024.56
2017-05-21T06:40:45.253Z,1024.56
2017-05-21T06:41:45.314Z,1024.54
2017-05-21T06:42:45.353Z,1024.56
2017-05-21T06:43:45.382Z,1024.61
2017-05-21T06:44:45.439Z,1024.57
2017-05-21T06:45:45.485Z,1024.52
2017-05-21T06:46:45.523Z,1024.54
2017-05-21T06:47:45.571Z,1024.56
2017-05-21T06:48:45.615Z,1024.57
2017-05-21T06:49:45.656Z,1024.57
2017-05-21T06:50:45.709Z,1024.58
2017-05-21T06:51:45.727Z,1024.53
2017-05-21T06:52:46.113Z,1024.57
2017-05-21T06:53:46.142Z,1024.54
2017-05-21T06:54:46.219Z,1024.56
2017-05-21T06:55:46.174Z,1024.58
2017-05-21T06:56:45.970Z,1024.54
2017-05-21T06:57:46.011Z,1024.56
2017-05-21T06:58:46.056Z,1024.55
2017-05-21T06:59:46.081Z,1024.56
2017-05-21T07:00:46.143Z,1024.6
2017-05-21T07:01:46.189Z,1024.61
2017-05-21T07:02:46.231Z,1024.58
2017-05-21T07:03:46.283Z,1024.6
2017-05-21T07:04:46.323Z,1024.62
2017-05-21T07:05:46.350Z,1024.63
2017-05-21T07:06:46.415Z,1024.58
2017-05-21T07:07:46.458Z,1024.63
2017-05-21T07:08:46.505Z,1024.61
2017-05-21T07:09:46.549Z,1024.68
2017-05-21T07:10:46.928Z,1024.68
2017-05-21T07:11:46.633Z,1024.73
2017-05-21T07:12:46.690Z,1024.71
2017-05-21T07:13:46.730Z,1024.7
2017-05-21T07:14:46.784Z,1024.71
2017-05-21T07:15:46.821Z,1024.77
2017-05-21T07:16:46.867Z,1024.74
2017-05-21T07:17:46.914Z,1024.75
2017-05-21T07:18:46.956Z,1024.77
2017-05-21T07:19:47.001Z,1024.79
2017-05-21T07:20:47.051Z,1024.78
2017-05-21T07:21:47.097Z,1024.83
2017-05-21T07:22:47.144Z,1024.79
2017-05-21T07:23:47.190Z,1024.84
2017-05-21T07:24:47.232Z,1024.86
2017-05-21T07:25:47.286Z,1024.86
2017-05-21T07:26:47.327Z,1024.84
2017-05-21T07:27:47.375Z,1024.85
2017-05-21T07:28:47.419Z,1024.84
2017-05-21T07:29:47.789Z,1024.85
2017-05-21T07:30:47.514Z,1024.82
2017-05-21T07:31:47.561Z,1024.83
2017-05-21T07:32:47.602Z,1024.78
2017-05-21T07:33:47.648Z,1024.82
2017-05-21T07:34:47.699Z,1024.76
2017-05-21T07:35:47.744Z,1024.84
2017-05-21T07:36:47.793Z,1024.93
2017-05-21T07:37:47.838Z,1024.99
2017-05-21T07:38:47.888Z,1025.08
2017-05-21T07:39:47.930Z,1025.06
2017-05-21T07:40:47.989Z,1025.01
2017-05-21T07:41:48.026Z,1025.05
2017-05-21T07:42:48.070Z,1025.02
2017-05-21T07:43:48.115Z,1025.07
2017-05-21T07:44:48.150Z,1025.15
2017-05-21T07:45:48.213Z,1025.08
2017-05-21T07:46:48.258Z,1025.14
2017-05-21T07:47:48.295Z,1025.15
2017-05-21T07:48:48.352Z,1025.2
2017-05-21T07:49:48.411Z,1025.21
2017-05-21T07:50:48.449Z,1025.17
2017-05-21T07:51:48.503Z,1025.23
2017-05-21T07:52:48.544Z,1025.22
2017-05-21T07:53:48.592Z,1025.21
2017-05-21T07:54:48.646Z,1025.18
2017-05-21T07:55:48.689Z,1025.18
2017-05-21T07:56:48.730Z,1025.24
2017-05-21T07:57:48.761Z,1025.22
2017-05-21T07:58:48.827Z,1025.25
2017-05-21T07:59:48.873Z,1025.23
2017-05-21T08:00:48.901Z,1025.24
2017-05-21T08:01:48.966Z,1025.28
2017-05-21T08:02:49.001Z,1025.3
2017-05-21T08:03:49.133Z,1025.29
2017-05-21T08:04:49.096Z,1025.27
2017-05-21T08:05:49.158Z,1025.26
2017-05-21T08:06:49.202Z,1025.26
2017-05-21T08:07:49.248Z,1025.22
2017-05-21T08:08:49.301Z,1025.33
2017-05-21T08:09:49.349Z,1025.26
2017-05-21T08:10:49.499Z,1025.3
2017-05-21T08:11:49.445Z,1025.33
2017-05-21T08:12:49.491Z,1025.31
2017-05-21T08:13:49.537Z,1025.3
2017-05-21T08:14:49.591Z,1024.44
2017-05-21T08:15:49.639Z,1025.33
2017-05-21T08:16:49.690Z,1025.29
2017-05-21T08:17:49.723Z,1025.21
2017-05-21T08:18:49.783Z,1025.29
2017-05-21T08:19:49.830Z,1025.37
2017-05-21T08:20:49.884Z,1025.44
2017-05-21T08:21:49.932Z,1025.47
2017-05-21T08:22:49.979Z,1025.47
2017-05-21T08:23:50.012Z,1025.48
2017-05-21T08:24:50.079Z,1025.46
2017-05-21T08:25:50.107Z,1025.53
2017-05-21T08:26:50.174Z,1025.49
2017-05-21T08:27:50.220Z,1025.51
2017-05-21T08:28:50.273Z,1025.51
2017-05-21T08:29:50.317Z,1025.49
2017-05-21T08:30:50.368Z,1025.52
2017-05-21T08:31:50.420Z,1025.51
2017-05-21T08:32:50.472Z,1025.48
2017-05-21T08:33:50.514Z,1025.49
2017-05-21T08:34:50.570Z,1025.45
2017-05-21T08:35:50.620Z,1025.51
2017-05-21T08:36:50.665Z,1025.47
2017-05-21T08:37:50.720Z,1025.53
2017-05-21T08:38:50.767Z,1025.49
2017-05-21T08:39:50.829Z,1025.53
2017-05-21T08:40:50.869Z,1025.56
2017-05-21T08:41:50.918Z,1025.46
2017-05-21T08:42:50.966Z,1025.48
2017-05-21T08:43:51.018Z,1025.53
2017-05-21T08:44:51.065Z,1025.51
2017-05-21T08:45:51.119Z,1025.47
2017-05-21T08:46:51.169Z,1025.48
2017-05-21T08:47:51.219Z,1025.53
2017-05-21T08:48:51.267Z,1025.55
2017-05-21T08:49:51.316Z,1025.55
2017-05-21T08:50:51.373Z,1025.51
2017-05-21T08:51:51.421Z,1025.48
2017-05-21T08:52:51.474Z,1025.55
2017-05-21T08:53:51.527Z,1025.58
2017-05-21T08:54:51.571Z,1025.59
2017-05-21T08:55:51.628Z,1025.54
2017-05-21T08:56:51.671Z,1025.64
2017-05-21T08:57:51.723Z,1025.59
2017-05-21T08:58:51.772Z,1025.58
2017-05-21T08:59:51.825Z,1025.58
2017-05-21T09:00:51.875Z,1025.54
2017-05-21T09:01:51.925Z,1025.52
2017-05-21T09:02:51.974Z,1025.55
2017-05-21T09:03:52.025Z,1025.62
2017-05-21T09:04:52.075Z,1025.58
2017-05-21T09:05:52.130Z,1025.53
2017-05-21T09:06:52.179Z,1025.51
2017-05-21T09:07:52.209Z,1025.52
2017-05-21T09:08:52.294Z,1025.46
2017-05-21T09:09:52.330Z,1025.43
2017-05-21T09:10:52.391Z,1025.5
2017-05-21T09:11:52.428Z,1025.53
2017-05-21T09:12:52.486Z,1025.51
2017-05-21T09:13:52.538Z,1025.54
2017-05-21T09:14:52.586Z,1025.56
2017-05-21T09:15:52.641Z,1025.54
2017-05-21T09:16:52.746Z,1025.53
2017-05-21T09:17:52.747Z,1025.58
2017-05-21T09:18:52.795Z,1025.58
2017-05-21T09:19:52.834Z,1025.51
2017-05-21T09:20:52.901Z,1025.6
2017-05-21T09:21:52.949Z,1025.65
2017-05-21T09:22:53.003Z,1025.66
2017-05-21T09:23:53.057Z,1025.58
2017-05-21T09:24:53.089Z,1025.6
2017-05-21T09:25:53.141Z,1025.56
2017-05-21T09:26:53.210Z,1025.56
2017-05-21T09:27:53.262Z,1025.49
2017-05-21T09:28:53.312Z,1025.43
2017-05-21T09:29:53.366Z,1025.48
2017-05-21T09:30:53.424Z,1025.46
2017-05-21T09:31:53.471Z,1025.48
2017-05-21T09:32:53.524Z,1025.47
2017-05-21T09:33:53.573Z,1025.53
2017-05-21T09:34:53.632Z,1025.52
2017-05-21T09:35:53.669Z,1025.22
2017-05-21T09:36:53.733Z,1025.52
2017-05-21T09:37:53.780Z,1025.49
2017-05-21T09:38:53.834Z,1025.61
2017-05-21T09:39:53.890Z,1025.68
2017-05-21T09:40:53.943Z,1025.59
2017-05-21T09:41:53.998Z,1025.58
2017-05-21T09:42:54.032Z,1025.64
2017-05-21T09:43:54.103Z,1025.62
2017-05-21T09:44:54.137Z,1025.57
2017-05-21T09:45:54.207Z,1025.62
2017-05-21T09:46:54.259Z,1025.69
2017-05-21T09:47:54.312Z,1025.61
2017-05-21T09:48:54.365Z,1025.61
2017-05-21T09:49:54.401Z,1025.5
2017-05-21T09:50:54.456Z,1025.22
2017-05-21T09:51:54.522Z,1025.53
2017-05-21T09:52:54.635Z,1025.59
2017-05-21T09:53:54.630Z,1025.74
2017-05-21T09:54:54.683Z,1025.75
2017-05-21T09:55:54.730Z,1025.71
2017-05-21T09:56:54.786Z,1025.63
2017-05-21T09:57:54.843Z,1025.66
2017-05-21T09:58:54.897Z,1025.69
2017-05-21T09:59:54.941Z,1025.67
2017-05-21T10:00:54.994Z,1025.68
2017-05-21T10:01:55.046Z,1025.7
2017-05-21T10:02:55.098Z,1025.68
2017-05-21T10:03:55.150Z,1025.65
2017-05-21T10:04:55.211Z,1025.69
2017-05-21T10:05:55.256Z,1025.7
2017-05-21T10:06:55.287Z,1025.76
2017-05-21T10:07:55.365Z,1025.82
2017-05-21T10:08:55.410Z,1025.91
2017-05-21T10:09:55.448Z,1025.92
2017-05-21T10:10:55.521Z,1025.97
2017-05-21T10:11:55.569Z,1025.99
2017-05-21T10:12:55.621Z,1024.46
2017-05-21T10:13:55.671Z,1024.98
2017-05-21T10:14:55.726Z,1025.6
2017-05-21T10:15:55.777Z,1026.12
2017-05-21T10:16:55.823Z,1026.32
2017-05-21T10:17:55.877Z,1026.41
2017-05-21T10:18:55.922Z,1026.41
2017-05-21T10:19:55.976Z,1026.3
2017-05-21T10:20:56.072Z,1026.42
2017-05-21T10:21:56.077Z,1026.36
2017-05-21T10:22:56.124Z,1025.88
2017-05-21T10:23:56.176Z,1024.58
2017-05-21T10:24:56.279Z,1026.68
2017-05-21T10:25:56.281Z,1026.63
2017-05-21T10:26:56.326Z,1026.7
2017-05-21T10:27:56.369Z,1026.68
2017-05-21T10:28:56.424Z,1026.73
2017-05-21T10:29:56.471Z,1026.78
2017-05-21T10:30:56.520Z,1026.68
2017-05-21T10:31:56.549Z,1026.69
2017-05-21T10:32:56.609Z,1026.96
2017-05-21T10:33:56.658Z,1026.88
2017-05-21T10:34:56.708Z,1026.84
2017-05-21T10:35:56.756Z,1026.79
2017-05-21T10:36:56.804Z,1026.88
2017-05-21T10:37:56.847Z,1027.21
2017-05-21T10:38:56.875Z,1027.35
2017-05-21T10:39:56.942Z,1027.31
2017-05-21T10:40:56.984Z,1027.44
2017-05-21T10:41:57.035Z,1027.67
2017-05-21T10:42:57.082Z,1027.66
2017-05-21T10:43:57.124Z,1027.49
2017-05-21T10:44:57.174Z,1027.39
2017-05-21T10:45:57.206Z,1027.47
2017-05-21T10:46:57.239Z,1027.63
2017-05-21T10:47:57.307Z,1027.48
2017-05-21T10:48:57.355Z,1027.32
2017-05-21T10:49:57.379Z,1027.23
2017-05-21T10:50:57.449Z,1027.42
2017-05-21T10:51:57.470Z,1027.58
2017-05-21T10:52:57.517Z,1027.6
2017-05-21T10:53:57.576Z,1025.95
2017-05-21T10:54:57.625Z,1024.43
2017-05-21T10:55:57.671Z,1024.35
2017-05-21T10:56:57.719Z,1024.3
2017-05-21T10:57:57.755Z,1024.29
2017-05-21T10:58:57.801Z,1024.31
2017-05-21T10:59:57.841Z,1024.28
2017-05-21T11:00:57.878Z,1024.32
2017-05-21T11:01:57.928Z,1024.3
2017-05-21T11:02:57.976Z,1024.27
2017-05-21T11:03:58.018Z,1024.27
2017-05-21T11:04:58.058Z,1024.25
2017-05-21T11:05:58.102Z,1024.22
2017-05-21T11:06:58.126Z,1024.21
2017-05-21T11:07:58.201Z,1024.19
2017-05-21T11:08:58.226Z,1024.24
2017-05-21T11:09:58.275Z,1024.23
2017-05-21T11:10:58.316Z,1024.29
2017-05-21T11:11:58.360Z,1024.24
2017-05-21T11:12:58.384Z,1024.18
2017-05-21T11:13:58.445Z,1024.2
2017-05-21T11:14:58.484Z,1024.25
2017-05-21T11:15:58.529Z,1024.17
2017-05-21T11:16:58.572Z,1024.1
2017-05-21T11:17:58.619Z,1024.08
2017-05-21T11:18:58.662Z,1024.2
2017-05-21T11:19:58.702Z,1024.18
2017-05-21T11:20:58.744Z,1024.1
2017-05-21T11:21:58.785Z,1024.12
2017-05-21T11:22:58.823Z,1024.04
2017-05-21T11:23:58.871Z,1024.08
2017-05-21T11:24:58.912Z,1023.98
2017-05-21T11:25:58.955Z,1023.95
2017-05-21T11:26:58.975Z,1023.94
2017-05-21T11:27:59.034Z,1024.01
2017-05-21T11:28:59.082Z,1024.01
2017-05-21T11:29:59.121Z,1024
2017-05-21T11:30:59.161Z,1023.94
2017-05-21T11:31:59.185Z,1023.92
2017-05-21T11:32:59.245Z,1023.93
2017-05-21T11:33:59.277Z,1023.9
2017-05-21T11:34:59.333Z,1023.94
2017-05-21T11:35:59.353Z,1023.88
2017-05-21T11:36:59.392Z,1023.88
2017-05-21T11:37:59.453Z,1023.86
2017-05-21T11:38:59.498Z,1023.85
2017-05-21T11:39:59.533Z,1023.85
2017-05-21T11:40:59.576Z,1023.85
2017-05-21T11:41:59.618Z,1023.96
2017-05-21T11:42:59.658Z,1023.96
2017-05-21T11:43:59.704Z,1023.92
2017-05-21T11:44:59.747Z,1023.92
2017-05-21T11:45:59.784Z,1023.95
2017-05-21T11:46:59.822Z,1023.92
2017-05-21T11:47:59.866Z,1023.95
2017-05-21T11:48:59.887Z,1023.86
2017-05-21T11:49:59.945Z,1023.98
2017-05-21T11:50:59.996Z,1023.94
2017-05-21T11:52:00.017Z,1023.94
2017-05-21T11:53:00.078Z,1023.94
2017-05-21T11:54:00.114Z,1023.83
2017-05-21T11:55:00.149Z,1023.86
2017-05-21T11:56:00.179Z,1023.8
2017-05-21T11:57:00.233Z,1023.83
2017-05-21T11:58:00.281Z,1023.88
2017-05-21T11:59:00.303Z,1023.87
2017-05-21T12:00:00.360Z,1023.86
2017-05-21T12:01:00.396Z,1023.87
2017-05-21T12:02:00.436Z,1023.91
2017-05-21T12:03:00.480Z,1023.87
2017-05-21T12:04:00.520Z,1023.87
2017-05-21T12:05:00.561Z,1023.94
2017-05-21T12:06:00.597Z,1023.88
2017-05-21T12:07:00.640Z,1023.9
2017-05-21T12:08:00.680Z,1023.85
2017-05-21T12:09:00.722Z,1023.8